x

Nfb - Northwest Florida Bay, Fl (nfbf1) Weather Station

6:54pm - Sat 25th Apr 2015 All times are CDT. -4 hours from GMT.

  • Wind
    6mph, 8mph gusts
  • Air Temp 85°f
  • Sea Pressure 1011.7mb
  • Nfb - Northwest Florida Bay, Fl
  • Nfb - Northwest Florida Bay, Fl

More Historic Weather Station data

Upgrade to MSW Pro to gain access to the past 30 days of data for over 8000 Wavebouys and Weather Stations around the globe.

Join Pro

Comparision Forecast

View Surf forecast
   
Sat 04/25 6:54pm 6 8 mph 1011.7mb 85f
6:48pm 6 8 mph 1011.7mb 85f
6:42pm 6 7 mph 1011.7mb 85f
6:36pm 6 9 mph 1011.7mb 85f
5:54pm 7 8 mph 1011.6mb 85f
5:48pm 6 8 mph 1011.6mb 85f
5:42pm 5 8 mph 1011.6mb 85f
5:36pm 6 8 mph 1011.7mb 85f
5:30pm 6 8 mph 1011.7mb 85f
5:24pm 6 8 mph 1011.9mb 85f
5:18pm 5 7 mph 1011.8mb 85f
5:12pm 6 7 mph 1011.7mb 85f
5:06pm 6 8 mph 1011.8mb 85f
5:00pm 6 8 mph 1012mb 85f
4:54pm 6 7 mph 1011.9mb 85f
4:48pm 7 9 mph 1011.8mb 85f
4:42pm 9 10 mph 1011.6mb 85f
4:36pm 9 11 mph 1011.7mb 84f
4:30pm 9 11 mph 1011.8mb 84f
4:24pm 9 11 mph 1011.7mb 84f
4:18pm 8 13 mph 1011.9mb 84f
4:12pm 8 9 mph 1012mb 84f
4:06pm 6 8 mph 1012.2mb 84f
4:00pm 6 8 mph 1012.3mb 84f
3:54pm 6 8 mph 1012.2mb 84f
3:48pm 7 8 mph 1012.3mb 84f
3:42pm 6 8 mph 1012.5mb 84f
3:36pm 6 8 mph 1012.5mb 84f
2:54pm 6 8 mph 1013.3mb 84f
2:48pm 6 8 mph 1013.5mb 84f
2:42pm 6 7 mph 1013.6mb 84f
2:36pm 6 7 mph 1013.7mb 84f
1:54pm 6 8 mph 1014.1mb 84f
1:48pm 7 9 mph 1014.1mb 84f
1:42pm 8 10 mph 1014.1mb 83f
1:36pm 8 10 mph 1014.2mb 83f
1:30pm 9 10 mph 1014.1mb 83f
1:24pm 10 13 mph 1014.1mb 83f
1:18pm 9 13 mph 1014.2mb 83f
1:12pm 10 13 mph 1014.2mb 83f
1:06pm 11 14 mph 1014.1mb 83f
1:00pm 11 14 mph 1014mb 83f
12:54pm 11 15 mph 1014mb 83f
12:48pm 11 14 mph 1014.1mb 83f
12:42pm 11 14 mph 1014.2mb 83f
12:36pm 10 13 mph 1014.3mb 83f
11:54am 10 13 mph 1014.5mb 83f
11:48am 10 13 mph 1014.6mb 83f
11:42am 10 14 mph 1014.7mb 83f
11:36am 9 11 mph 1014.7mb 83f
10:54am 13 15 mph 1014.9mb 83f
10:48am 13 15 mph 1014.8mb 83f
10:42am 13 16 mph 1014.7mb 83f
10:36am 13 15 mph 1014.7mb 83f
9:54am 15 16 mph 1014.7mb 83f
9:48am 15 17 mph 1014.7mb 83f
9:42am 15 17 mph 1014.7mb 83f
9:36am 15 17 mph 1014.6mb 83f
8:54am 14 16 mph 1014.2mb 83f
8:48am 13 16 mph 1014.2mb 83f
8:42am 13 16 mph 1014.2mb 83f
8:36am 13 15 mph 1014.2mb 83f
8:30am 14 15 mph 1014.2mb 83f
8:24am 13 15 mph 1014.1mb 83f
8:18am 11 14 mph 1014.1mb 83f
8:12am 11 14 mph 1014.1mb 83f
8:06am 10 14 mph 1014.1mb 83f
8:00am 11 14 mph 1014.1mb 83f
7:54am 11 14 mph 1014.1mb 84f
7:48am 11 15 mph 1014.1mb 84f
7:42am 10 13 mph 1014mb 84f
7:36am 10 11 mph 1014mb 83f
6:54am 10 11 mph 1013.4mb 83f
6:48am 10 11 mph 1013.3mb 83f
6:42am 9 11 mph 1013.3mb 83f
6:36am 8 10 mph 1013.3mb 83f
5:54am 9 10 mph 1013mb 83f
5:48am 9 11 mph 1013mb 83f
5:42am 10 14 mph 1012.9mb 83f
5:36am 10 14 mph 1012.8mb 83f
4:54am 11 14 mph 1012.3mb 83f
4:48am 13 15 mph 1012.2mb 83f
4:42am 13 15 mph 1012.3mb 83f
4:36am 13 15 mph 1012.4mb 83f
3:54am 15 18 mph 1012.5mb 82f
3:48am 13 15 mph 1012.7mb 82f
3:42am 14 16 mph 1012.7mb 82f
3:36am 14 16 mph 1012.7mb 82f
2:54am 14 17 mph 1013mb 82f
2:48am 14 16 mph 1013.2mb 82f
2:42am 14 16 mph 1013.2mb 82f
2:36am 14 16 mph 1013.4mb 82f
1:54am 9 10 mph 1014.3mb 81f
1:48am 10 11 mph 1014.4mb 81f
1:42am 11 13 mph 1014.5mb 81f
1:36am 9 11 mph 1014.5mb 80f
12:54am 9 10 mph 1014.9mb 81f
12:48am 9 10 mph 1015mb 81f
12:42am 9 10 mph 1015mb 81f
12:36am 10 13 mph 1014.9mb 81f
Fri 04/24 11:54pm 13 15 mph 1015mb 83f
11:48pm 14 17 mph 1015mb 83f
11:42pm 14 16 mph 1015mb 83f
11:36pm 15 16 mph 1015.1mb 83f
10:54pm 15 18 mph 1014.9mb 84f
10:48pm 15 18 mph 1015mb 84f
10:42pm 15 17 mph 1015mb 84f
10:36pm 14 16 mph 1014.9mb 84f
9:54pm 14 16 mph 1014.7mb 83f
9:48pm 14 16 mph 1014.6mb 83f
9:42pm 14 16 mph 1014.5mb 83f
9:36pm 14 16 mph 1014.4mb 83f
7:54pm 14 16 mph 1014.1mb 83f
7:48pm 14 16 mph 1014mb 83f
7:42pm 15 16 mph 1013.9mb 83f
7:36pm 15 17 mph 1013.8mb 83f
7:30pm 15 17 mph 1013.6mb 83f
7:24pm 15 18 mph 1013.6mb 83f
7:18pm 15 18 mph 1013.6mb 83f
7:12pm 14 17 mph 1013.6mb 83f
7:06pm 14 16 mph 1013.6mb 83f
7:00pm 13 16 mph 1013.6mb 83f
6:54pm 14 17 mph 1013.6mb 83f
6:48pm 14 16 mph 1013.6mb 83f
6:42pm 14 16 mph 1013.6mb 83f
6:36pm 14 16 mph 1013.7mb 83f
5:54pm 15 18 mph 1013.8mb 84f
5:48pm 16 18 mph 1013.7mb 84f
5:42pm 15 17 mph 1013.8mb 84f
5:36pm 14 15 mph 1013.7mb 84f
4:54pm 14 16 mph 1013.9mb 84f
4:48pm 14 16 mph 1013.9mb 84f
4:42pm 14 16 mph 1014mb 84f
4:36pm 14 16 mph 1013.8mb 84f
3:54pm 14 16 mph 1013.9mb 84f
3:48pm 14 17 mph 1014mb 84f
3:42pm 15 17 mph 1014.2mb 84f
3:36pm 14 16 mph 1014.3mb 84f
2:54pm 11 14 mph 1014.8mb 84f
2:48pm 10 13 mph 1014.7mb 84f
2:42pm 10 13 mph 1014.9mb 84f
2:36pm 9 11 mph 1015mb 84f
2:30pm 10 13 mph 1015mb 83f
2:24pm 9 13 mph 1015mb 84f
2:18pm 9 11 mph 1015mb 83f
2:12pm 9 11 mph 1015.1mb 83f
2:06pm 9 10 mph 1015.2mb 83f
2:00pm 9 13 mph 1015.3mb 83f
1:54pm 10 14 mph 1015.4mb 83f
1:48pm 10 13 mph 1015.5mb 83f
1:42pm 10 13 mph 1015.4mb 83f
1:36pm 10 14 mph 1015.5mb 83f
12:54pm 8 13 mph 1015.6mb 83f
12:48pm 9 11 mph 1015.6mb 83f
12:42pm 8 11 mph 1015.6mb 83f
12:36pm 8 11 mph 1015.7mb 83f
11:54am 9 13 mph 1016.2mb 83f
11:48am 11 14 mph 1016.4mb 83f
11:42am 10 14 mph 1016.4mb 83f
11:36am 10 14 mph 1016.4mb 83f
10:54am 10 11 mph 1016.2mb 83f
10:48am 9 11 mph 1016.2mb 83f
10:42am 9 11 mph 1016.2mb 83f
10:36am 9 13 mph 1016.1mb 83f
9:54am 9 11 mph 1015.9mb 83f
9:48am 10 11 mph 1015.9mb 83f
9:42am 8 10 mph 1015.8mb 83f
9:36am 9 10 mph 1015.7mb 82f
8:54am 6 7 mph 1015.3mb 82f
8:48am 7 8 mph 1015.3mb 82f
8:42am 6 7 mph 1015.2mb 83f
8:36am 6 8 mph 1015.1mb 83f
8:30am 6 7 mph 1015.1mb 82f
8:24am 6 7 mph 1015mb 82f
8:18am 6 7 mph 1015mb 82f
8:12am 6 7 mph 1015mb 82f
8:06am 6 7 mph 1015.1mb 82f
8:00am 6 8 mph 1015mb 82f
7:54am 6 7 mph 1014.9mb 82f
7:48am 6 8 mph 1014.8mb 82f
7:42am 7 8 mph 1014.8mb 82f
7:36am 7
mph
1014.6mb 82f
6:54am 6 8 mph 1014.2mb 82f
6:48am 7 8 mph 1014.2mb 82f
6:42am 3 7 mph 1014.2mb 82f
6:36am 2 6 mph 1014.1mb 82f
5:54am 1 3 mph 1014mb 82f
5:48am  -  5 mph 1013.9mb 82f
5:42am  -  2 mph 1013.8mb 82f
5:36am 1 3 mph 1013.8mb 82f
4:54am 2 5 mph 1013.5mb 82f
4:48am  -  2 mph 1013.5mb 82f
4:42am  -  2 mph 1013.4mb 82f
4:36am  -  3 mph 1013.3mb 82f
3:54am 2 5 mph 1013.4mb 82f
3:48am 3 5 mph 1013.4mb 82f
3:42am 2 3 mph 1013.5mb 82f
3:36am 2 3 mph 1013.5mb 82f
2:54am 2 3 mph 1013.6mb 82f
2:48am 1 2 mph 1013.8mb 82f
2:42am 2 3 mph 1013.8mb 82f
2:36am 2 3 mph 1013.9mb 82f
1:54am 1 2 mph 1014.5mb 82f
1:48am 3 5 mph 1014.5mb 82f
1:42am 3 5 mph 1014.5mb 82f
1:36am 5 6 mph 1014.5mb 82f
1:30am 5 6 mph 1014.6mb 82f
1:24am 5 6 mph 1014.7mb 82f
1:18am 6
mph
1014.9mb 82f
1:12am 6 7 mph 1014.9mb 82f
1:06am 6 7 mph 1015mb 81f
1:00am 6 7 mph 1015mb 81f
12:54am 6 7 mph 1015mb 81f
12:48am 6
mph
1015.2mb 81f
12:42am 6 7 mph 1015.3mb 81f
12:36am 6 8 mph 1015.2mb 81f
Thu 04/23 11:54pm 7 8 mph 1015.6mb 80f
11:48pm 6 8 mph 1015.8mb 80f
11:42pm 7 8 mph 1015.8mb 80f
11:36pm 7 8 mph 1015.7mb 80f
10:54pm 9 11 mph 1015.7mb 79f
10:48pm 10 13 mph 1015.7mb 80f
10:42pm 10 11 mph 1015.5mb 80f
10:36pm 10 13 mph 1015.4mb 80f
9:54pm 13 14 mph 1015.5mb 80f
9:48pm 14 16 mph 1015.6mb 80f
9:42pm 14 15 mph 1015.5mb 80f
9:36pm 15 17 mph 1015.4mb 81f
8:54pm 8 10 mph 1015mb 83f
8:48pm 8 9 mph 1014.9mb 83f
8:42pm 8 9 mph 1014.8mb 83f
8:36pm 8 9 mph 1014.7mb 83f
7:54pm 10 13 mph 1014.2mb 83f
7:48pm 11 13 mph 1014.1mb 83f
7:42pm 11 14 mph 1013.9mb 83f
7:36pm 11 14 mph 1014mb 83f
6:54pm 9 11 mph 1013.7mb 84f
6:48pm 9 10 mph 1013.8mb 84f
6:42pm 9 11 mph 1013.8mb 84f
6:36pm 9 11 mph 1013.9mb 84f
6:30pm 7 10 mph 1013.9mb 84f
6:24pm 6 9 mph 1014mb 84f
6:18pm 7 9 mph 1014mb 84f
6:12pm 9 13 mph 1014.1mb 84f
6:06pm 10 13 mph 1014mb 83f
6:00pm 11 14 mph 1014mb 83f
5:54pm 9 15 mph 1014.2mb 83f
5:48pm 3 9 mph 1014mb 84f
5:42pm 3 7 mph 1014mb 84f
5:36pm 3 7 mph 1013.9mb 84f
4:54pm 3 7 mph 1013.5mb 84f
4:48pm 7 8 mph 1013.6mb 84f
4:42pm 7 8 mph 1013.6mb 84f
4:36pm 6 7 mph 1013.5mb 84f
3:54pm 7 9 mph 1013.3mb 84f
3:48pm 7 9 mph 1013.3mb 84f
3:42pm 8 9 mph 1013.4mb 84f
3:36pm 8 9 mph 1013.5mb 84f
3:30pm 8 10 mph 1013.6mb 84f
3:24pm 8 10 mph 1013.6mb 84f
3:18pm 8 10 mph 1013.6mb 84f
3:12pm 8 9 mph 1013.8mb 83f
3:06pm 8 10 mph 1013.8mb 83f
3:00pm 8 10 mph 1013.9mb 83f
2:54pm 7 9 mph 1014mb 83f
2:48pm 7 8 mph 1014mb 83f
2:42pm 7 9 mph 1014mb 83f
2:36pm 7 9 mph 1014.2mb 83f
2:30pm 7 9 mph 1014.3mb 83f
2:24pm 7 9 mph 1014.3mb 83f
2:18pm 7 8 mph 1014.3mb 83f
2:12pm 7 8 mph 1014.3mb 83f
2:06pm 7 9 mph 1014.4mb 83f
2:00pm 7 9 mph 1014.6mb 83f
1:54pm 7 9 mph 1014.7mb 83f
1:48pm 6 8 mph 1014.9mb 83f
1:42pm 6 7 mph 1014.9mb 83f
1:36pm 6 8 mph 1014.9mb 83f
12:54pm 7 8 mph 1015.1mb 83f
12:48pm 7 9 mph 1015.1mb 83f
12:42pm 7 8 mph 1015.1mb 83f
12:36pm 7 9 mph 1015.1mb 83f
12:30pm 7 8 mph 1015.1mb 83f
12:24pm 7 9 mph 1015.1mb 83f
12:18pm 9 10 mph 1014.9mb 83f
12:12pm 10 13 mph 1015mb 83f
12:06pm 9 10 mph 1015mb 82f
12:00pm 10 11 mph 1015.1mb 82f
11:54am 8 10 mph 1015.3mb 82f
11:48am 7 8 mph 1015.5mb 82f
11:42am 6 8 mph 1015.5mb 82f
11:36am 2 5 mph 1015.4mb 81f
10:54am 5 8 mph 1015.8mb 83f
10:48am 5 9 mph 1015.9mb 83f
10:42am 9 10 mph 1015.7mb 83f
10:36am 8 10 mph 1015.9mb 83f
9:54am 9 13 mph 1015.8mb 83f
9:48am 10 11 mph 1015.6mb 83f
9:42am 9 13 mph 1015.7mb 83f
9:36am 9 13 mph 1015.9mb 82f
8:54am 8 10 mph 1015.5mb 82f
8:48am 8 10 mph 1015.5mb 82f
8:42am 8 10 mph 1015.4mb 82f
8:36am 9 10 mph 1015.1mb 82f
7:54am 8 10 mph 1014.8mb 82f
7:48am 9 10 mph 1014.7mb 82f
6:54am 9 11 mph 1014.3mb 82f
6:48am 9 11 mph 1014.3mb 82f
6:42am 10 13 mph 1014.3mb 82f
6:36am 8 10 mph 1014.5mb 82f
5:54am 7 8 mph 1014.3mb 82f
5:48am 6 7 mph 1014.3mb 82f
5:42am 6 7 mph 1014.3mb 82f
5:36am 6 8 mph 1014.3mb 82f
4:54am 7 8 mph 1014.2mb 82f
4:48am 6 7 mph 1014.3mb 82f
4:42am 6 8 mph 1014.5mb 82f
4:36am 7 8 mph 1014.5mb 82f
3:54am 6 7 mph 1014.7mb 82f
3:48am 6 7 mph 1014.7mb 82f
3:42am 7
mph
1014.6mb 82f
3:36am 8 9 mph 1014.6mb 82f
2:54am 8 10 mph 1014.5mb 83f
2:48am 9 14 mph 1014.6mb 83f
2:42am 8 9 mph 1014.5mb 83f
2:36am 8 9 mph 1014.5mb 82f
1:54am 8 9 mph 1015.2mb 82f
1:48am 6 8 mph 1015.2mb 82f
1:42am 6 8 mph 1015mb 82f
1:36am 7 9 mph 1014.9mb 82f
12:54am 6 8 mph 1015.6mb 82f
12:48am 6 7 mph 1015.6mb 82f
12:42am 6 8 mph 1015.7mb 83f
12:36am 5 6 mph 1015.7mb 83f
Wed 04/22 11:54pm 6 7 mph 1015.8mb 82f
11:48pm 6 7 mph 1015.7mb 82f
11:42pm 7 9 mph 1015.6mb 82f
11:36pm 7 9 mph 1015.8mb 82f
10:54pm 11 13 mph 1015.4mb 81f
10:48pm 11 14 mph 1015.4mb 81f
10:42pm 10 13 mph 1015.4mb 81f
10:36pm 10 11 mph 1015.5mb 81f
9:54pm 10 13 mph 1015.1mb 82f
9:48pm 10 13 mph 1015mb 82f
9:42pm 11 14 mph 1014.7mb 82f
9:36pm 13 15 mph 1014.6mb 82f
8:54pm 10 11 mph 1014.7mb 82f
8:48pm 9 11 mph 1014.8mb 82f
8:42pm 9 11 mph 1014.7mb 82f
8:36pm 9 11 mph 1014.5mb 82f
8:30pm 9 11 mph 1014.3mb 82f
8:24pm 10 11 mph 1014.2mb 82f
8:18pm 9 11 mph 1014.4mb 82f
8:12pm 9 10 mph 1014.4mb 82f
8:06pm 9 11 mph 1014.3mb 82f
8:00pm 9 10 mph 1014.4mb 82f
7:54pm 9 10 mph 1014.4mb 82f
7:48pm 9 10 mph 1014.4mb 82f
7:42pm 9 11 mph 1014.3mb 82f
7:36pm 9 11 mph 1014.2mb 82f
6:54pm 7 9 mph 1014.4mb 83f
6:48pm 5 7 mph 1014.5mb 83f
6:42pm 5 6 mph 1014.6mb 84f
6:36pm 5 7 mph 1014.6mb 84f
5:54pm 6 8 mph 1014.4mb 84f
5:48pm 6 7 mph 1014.4mb 84f
5:42pm 5 7 mph 1014.5mb 83f
5:36pm 6 7 mph 1014.5mb 83f
4:54pm 6 8 mph 1014.7mb 83f
4:48pm 5 7 mph 1014.7mb 83f
4:42pm 5 7 mph 1014.6mb 83f
4:36pm 5 6 mph 1014.6mb 83f
3:54pm 6 7 mph 1014.9mb 83f
3:48pm 6 7 mph 1014.9mb 83f
3:42pm 6 7 mph 1015mb 83f
3:36pm 3 6 mph 1015.1mb 82f
2:54pm 5 7 mph 1015.7mb 82f
2:48pm 6 7 mph 1015.7mb 82f
2:42pm 6 7 mph 1015.8mb 82f
2:36pm 5 6 mph 1015.8mb 82f
1:54pm 5 7 mph 1016mb 82f
1:48pm 5 6 mph 1016.1mb 82f
1:42pm 5 7 mph 1016mb 81f
1:36pm 6 7 mph 1016.1mb 81f
12:54pm 7 8 mph 1016.2mb 81f
12:48pm 6 7 mph 1016.3mb 81f
12:42pm 7 8 mph 1016.3mb 80f
12:36pm 7 9 mph 1016.4mb 80f
11:54am 7 8 mph 1016.5mb 80f
11:48am 7 9 mph 1016.5mb 80f
11:42am 8 10 mph 1016.4mb 80f
11:36am 8 10 mph 1016.3mb 80f
10:54am 9 10 mph 1016.5mb 79f
10:48am 9 10 mph 1016.4mb 79f
10:42am 9
mph
1016.4mb 79f
10:36am 8 11 mph 1016.5mb 79f
10:30am 10 11 mph 1016.4mb 79f
10:24am 10 11 mph 1016.2mb 79f
10:18am 10 13 mph 1016.1mb 79f
10:12am 10 11 mph 1016.1mb 79f
10:06am 10 13 mph 1016.2mb 79f
10:00am 9 11 mph 1016.2mb 79f
9:54am 9 11 mph 1016.1mb 79f
9:48am 10 11 mph 1016.1mb 78f
9:42am 10 13 mph 1016.1mb 78f
9:36am 11 13 mph 1016mb 79f
8:54am 10 11 mph 1016mb 78f
8:48am 10 11 mph 1016mb 78f
8:42am 10 13 mph 1015.9mb 78f
8:36am 9 11 mph 1015.8mb 78f
7:54am 11 14 mph 1016mb 77f
7:48am 10 14 mph 1016.1mb 77f
7:42am 11 14 mph 1016.1mb 77f
7:36am 11 14 mph 1016mb 77f
6:54am 10 14 mph 1015.6mb 77f
6:48am 9 10 mph 1015.7mb 77f
6:42am 9 11 mph 1015.7mb 77f
6:36am 10 13 mph 1015.6mb 77f
5:54am 9 10 mph 1015.4mb 78f
5:48am 9 11 mph 1015.5mb 78f
5:42am 9 10 mph 1015.4mb 78f
5:36am 10 11 mph 1015.2mb 78f
4:54am 8 9 mph 1015.1mb 79f
4:48am 9 10 mph 1015mb 79f
4:42am 10 11 mph 1015.1mb 79f
4:36am 9 10 mph 1015mb 79f
3:54am 9 11 mph 1014.6mb 81f
3:48am 9 10 mph 1014.6mb 81f
3:42am 7 8 mph 1014.8mb 81f
3:36am 5 7 mph 1014.9mb 82f
2:54am 5 7 mph 1014.9mb 82f
2:48am 5 6 mph 1015mb 82f
2:42am 5 7 mph 1015mb 82f
2:36am 6 7 mph 1015.1mb 82f
1:54am 5 6 mph 1015.4mb 81f
1:48am 6 7 mph 1015.6mb 81f
1:42am 6
mph
1015.8mb 81f
1:36am 6 7 mph 1015.9mb 81f
12:54am 7 9 mph 1016mb 82f
12:48am 7 8 mph 1015.9mb 82f
12:42am 7 9 mph 1015.8mb 82f
12:36am 7 9 mph 1015.9mb 82f